Terminal Aerodrome Forecast
Issued by NWS

Home | Current Version | Previous Version | Text Only | Print | Product List | Glossary On
Versions: 1 2 3 4 5 6 7 8 9 10 11 12 13 14 15 16 17 18 19
472
FTUS41 KILN 311720
TAFLUK
TAF
KLUK 311720Z 3118/0118 06004KT P6SM SCT070 BKN250
     FM010000 00000KT P6SM SCT150 OVC200
     FM011400 15004KT P6SM SCT150=

USA.gov is the U.S. government's official web portal to all federal, state and local government web resources and services.